sensor_id;sensor_type;location;lat;lon;timestamp;P1;durP1;ratioP1;P2;durP2;ratioP2
17235;SDS011;8734;59.272;17.780;2023-07-20T00:01:46;3.60;;;1.10;;
17235;SDS011;8734;59.272;17.780;2023-07-20T00:04:14;9.00;;;1.30;;
17235;SDS011;8734;59.272;17.780;2023-07-20T00:06:43;2.37;;;1.07;;
17235;SDS011;8734;59.272;17.780;2023-07-20T00:09:13;4.53;;;1.40;;
17235;SDS011;8734;59.272;17.780;2023-07-20T00:11:47;6.60;;;0.97;;
17235;SDS011;8734;59.272;17.780;2023-07-20T00:14:17;1.50;;;0.87;;
17235;SDS011;8734;59.272;17.780;2023-07-20T00:16:45;5.90;;;0.90;;
17235;SDS011;8734;59.272;17.780;2023-07-20T00:19:15;6.17;;;1.23;;
17235;SDS011;8734;59.272;17.780;2023-07-20T00:21:44;2.80;;;1.07;;
17235;SDS011;8734;59.272;17.780;2023-07-20T00:24:13;5.07;;;1.43;;
17235;SDS011;8734;59.272;17.780;2023-07-20T00:26:42;4.90;;;1.03;;
17235;SDS011;8734;59.272;17.780;2023-07-20T00:29:11;2.37;;;0.90;;
17235;SDS011;8734;59.272;17.780;2023-07-20T00:31:39;6.20;;;1.20;;
17235;SDS011;8734;59.272;17.780;2023-07-20T00:34:07;9.07;;;1.20;;
17235;SDS011;8734;59.272;17.780;2023-07-20T00:36:36;10.63;;;2.73;;
17235;SDS011;8734;59.272;17.780;2023-07-20T00:39:04;3.90;;;1.00;;
17235;SDS011;8734;59.272;17.780;2023-07-20T00:41:34;6.50;;;0.90;;
17235;SDS011;8734;59.272;17.780;2023-07-20T00:44:02;6.20;;;0.87;;
17235;SDS011;8734;59.272;17.780;2023-07-20T00:46:31;5.07;;;1.10;;
17235;SDS011;8734;59.272;17.780;2023-07-20T00:49:00;3.83;;;1.10;;
17235;SDS011;8734;59.272;17.780;2023-07-20T00:51:29;3.83;;;1.03;;
17235;SDS011;8734;59.272;17.780;2023-07-20T00:53:57;4.33;;;1.10;;
17235;SDS011;8734;59.272;17.780;2023-07-20T00:56:26;2.47;;;0.90;;
17235;SDS011;8734;59.272;17.780;2023-07-20T00:58:56;8.03;;;1.33;;
17235;SDS011;8734;59.272;17.780;2023-07-20T01:01:24;2.80;;;1.00;;
17235;SDS011;8734;59.272;17.780;2023-07-20T01:03:53;12.70;;;1.50;;
17235;SDS011;8734;59.272;17.780;2023-07-20T01:06:25;4.73;;;1.60;;
17235;SDS011;8734;59.272;17.780;2023-07-20T01:09:02;6.80;;;1.20;;
17235;SDS011;8734;59.272;17.780;2023-07-20T01:11:38;4.03;;;1.27;;
17235;SDS011;8734;59.272;17.780;2023-07-20T01:14:12;4.40;;;1.07;;
17235;SDS011;8734;59.272;17.780;2023-07-20T01:16:42;6.23;;;1.40;;
17235;SDS011;8734;59.272;17.780;2023-07-20T01:19:13;7.33;;;1.10;;
17235;SDS011;8734;59.272;17.780;2023-07-20T01:21:43;3.87;;;1.10;;
17235;SDS011;8734;59.272;17.780;2023-07-20T01:27:45;13.00;;;2.10;;
17235;SDS011;8734;59.272;17.780;2023-07-20T01:33:24;5.50;;;1.13;;
17235;SDS011;8734;59.272;17.780;2023-07-20T01:35:54;2.47;;;1.17;;
17235;SDS011;8734;59.272;17.780;2023-07-20T01:38:25;4.40;;;1.30;;
17235;SDS011;8734;59.272;17.780;2023-07-20T01:40:53;11.10;;;1.67;;
17235;SDS011;8734;59.272;17.780;2023-07-20T01:43:23;6.43;;;1.40;;
17235;SDS011;8734;59.272;17.780;2023-07-20T01:45:51;5.20;;;1.20;;
17235;SDS011;8734;59.272;17.780;2023-07-20T01:48:19;9.57;;;1.30;;
17235;SDS011;8734;59.272;17.780;2023-07-20T01:50:49;6.03;;;1.27;;
17235;SDS011;8734;59.272;17.780;2023-07-20T01:53:17;7.53;;;1.47;;
17235;SDS011;8734;59.272;17.780;2023-07-20T01:55:46;6.57;;;1.17;;
17235;SDS011;8734;59.272;17.780;2023-07-20T01:58:14;5.47;;;1.30;;
17235;SDS011;8734;59.272;17.780;2023-07-20T02:00:42;3.50;;;1.10;;
17235;SDS011;8734;59.272;17.780;2023-07-20T02:03:11;4.50;;;1.23;;
17235;SDS011;8734;59.272;17.780;2023-07-20T02:05:40;4.33;;;1.23;;
17235;SDS011;8734;59.272;17.780;2023-07-20T02:08:11;3.70;;;0.97;;
17235;SDS011;8734;59.272;17.780;2023-07-20T02:10:39;5.67;;;1.87;;
17235;SDS011;8734;59.272;17.780;2023-07-20T02:13:08;2.73;;;1.10;;
17235;SDS011;8734;59.272;17.780;2023-07-20T02:15:36;9.23;;;1.40;;
17235;SDS011;8734;59.272;17.780;2023-07-20T02:18:05;4.20;;;1.33;;
17235;SDS011;8734;59.272;17.780;2023-07-20T02:20:34;7.80;;;1.60;;
17235;SDS011;8734;59.272;17.780;2023-07-20T02:23:02;5.07;;;1.33;;
17235;SDS011;8734;59.272;17.780;2023-07-20T02:25:32;2.83;;;1.17;;
17235;SDS011;8734;59.272;17.780;2023-07-20T02:28:00;8.20;;;1.57;;
17235;SDS011;8734;59.272;17.780;2023-07-20T02:30:29;5.80;;;1.60;;
17235;SDS011;8734;59.272;17.780;2023-07-20T02:32:57;10.27;;;1.57;;
17235;SDS011;8734;59.272;17.780;2023-07-20T02:35:26;5.03;;;1.10;;
17235;SDS011;8734;59.272;17.780;2023-07-20T02:37:54;6.43;;;1.30;;
17235;SDS011;8734;59.272;17.780;2023-07-20T02:40:22;3.93;;;1.20;;
17235;SDS011;8734;59.272;17.780;2023-07-20T02:42:52;11.63;;;2.07;;
17235;SDS011;8734;59.272;17.780;2023-07-20T02:45:20;3.43;;;1.30;;
17235;SDS011;8734;59.272;17.780;2023-07-20T02:47:48;6.67;;;1.53;;
17235;SDS011;8734;59.272;17.780;2023-07-20T02:50:17;7.37;;;2.07;;
17235;SDS011;8734;59.272;17.780;2023-07-20T02:52:45;8.43;;;1.57;;
17235;SDS011;8734;59.272;17.780;2023-07-20T02:55:13;5.50;;;1.70;;
17235;SDS011;8734;59.272;17.780;2023-07-20T02:57:42;9.07;;;1.60;;
17235;SDS011;8734;59.272;17.780;2023-07-20T03:00:12;9.63;;;1.80;;
17235;SDS011;8734;59.272;17.780;2023-07-20T03:02:43;4.20;;;1.30;;
17235;SDS011;8734;59.272;17.780;2023-07-20T03:05:14;5.87;;;1.73;;
17235;SDS011;8734;59.272;17.780;2023-07-20T03:07:43;5.97;;;1.70;;
17235;SDS011;8734;59.272;17.780;2023-07-20T03:10:12;6.40;;;1.43;;
17235;SDS011;8734;59.272;17.780;2023-07-20T03:12:40;8.13;;;1.73;;
17235;SDS011;8734;59.272;17.780;2023-07-20T03:15:08;7.70;;;1.30;;
17235;SDS011;8734;59.272;17.780;2023-07-20T03:17:39;12.37;;;1.70;;
17235;SDS011;8734;59.272;17.780;2023-07-20T03:20:08;8.27;;;1.90;;
17235;SDS011;8734;59.272;17.780;2023-07-20T03:22:39;8.60;;;1.90;;
17235;SDS011;8734;59.272;17.780;2023-07-20T03:25:07;8.90;;;1.60;;
17235;SDS011;8734;59.272;17.780;2023-07-20T03:27:36;4.53;;;1.37;;
17235;SDS011;8734;59.272;17.780;2023-07-20T03:30:05;11.87;;;1.70;;
17235;SDS011;8734;59.272;17.780;2023-07-20T03:32:36;14.10;;;1.67;;
17235;SDS011;8734;59.272;17.780;2023-07-20T03:35:06;7.80;;;1.70;;
17235;SDS011;8734;59.272;17.780;2023-07-20T03:37:35;4.40;;;1.63;;
17235;SDS011;8734;59.272;17.780;2023-07-20T03:40:05;5.97;;;1.77;;
17235;SDS011;8734;59.272;17.780;2023-07-20T03:42:34;10.37;;;2.00;;
17235;SDS011;8734;59.272;17.780;2023-07-20T03:45:03;9.33;;;1.70;;
17235;SDS011;8734;59.272;17.780;2023-07-20T03:47:32;7.50;;;1.43;;
17235;SDS011;8734;59.272;17.780;2023-07-20T03:50:01;11.53;;;2.10;;
17235;SDS011;8734;59.272;17.780;2023-07-20T03:52:31;11.40;;;2.00;;
17235;SDS011;8734;59.272;17.780;2023-07-20T03:54:59;7.60;;;2.20;;
17235;SDS011;8734;59.272;17.780;2023-07-20T03:57:28;6.67;;;1.73;;
17235;SDS011;8734;59.272;17.780;2023-07-20T03:59:58;7.90;;;2.00;;
17235;SDS011;8734;59.272;17.780;2023-07-20T04:02:27;10.53;;;1.70;;
17235;SDS011;8734;59.272;17.780;2023-07-20T04:04:55;7.43;;;1.57;;
17235;SDS011;8734;59.272;17.780;2023-07-20T04:07:24;12.40;;;1.80;;
17235;SDS011;8734;59.272;17.780;2023-07-20T04:09:53;8.60;;;2.50;;
17235;SDS011;8734;59.272;17.780;2023-07-20T04:12:22;8.87;;;2.30;;
17235;SDS011;8734;59.272;17.780;2023-07-20T04:14:50;7.43;;;1.73;;
17235;SDS011;8734;59.272;17.780;2023-07-20T04:17:18;11.30;;;1.87;;
17235;SDS011;8734;59.272;17.780;2023-07-20T04:19:46;13.27;;;2.13;;
17235;SDS011;8734;59.272;17.780;2023-07-20T04:22:15;10.23;;;2.27;;
17235;SDS011;8734;59.272;17.780;2023-07-20T04:24:43;12.07;;;2.33;;
17235;SDS011;8734;59.272;17.780;2023-07-20T04:27:13;10.77;;;2.23;;
17235;SDS011;8734;59.272;17.780;2023-07-20T04:29:41;4.80;;;1.90;;
17235;SDS011;8734;59.272;17.780;2023-07-20T04:32:09;8.83;;;2.23;;
17235;SDS011;8734;59.272;17.780;2023-07-20T04:34:37;9.23;;;2.63;;
17235;SDS011;8734;59.272;17.780;2023-07-20T04:37:06;8.73;;;2.10;;
17235;SDS011;8734;59.272;17.780;2023-07-20T04:39:34;8.03;;;2.13;;
17235;SDS011;8734;59.272;17.780;2023-07-20T04:42:03;5.33;;;1.70;;
17235;SDS011;8734;59.272;17.780;2023-07-20T04:44:33;16.30;;;3.87;;
17235;SDS011;8734;59.272;17.780;2023-07-20T04:47:01;10.00;;;2.17;;
17235;SDS011;8734;59.272;17.780;2023-07-20T04:49:30;13.60;;;3.37;;
17235;SDS011;8734;59.272;17.780;2023-07-20T04:51:58;9.23;;;2.33;;
17235;SDS011;8734;59.272;17.780;2023-07-20T04:54:26;6.97;;;2.23;;
17235;SDS011;8734;59.272;17.780;2023-07-20T04:56:54;18.40;;;2.07;;
17235;SDS011;8734;59.272;17.780;2023-07-20T04:59:23;11.87;;;2.00;;
17235;SDS011;8734;59.272;17.780;2023-07-20T05:01:52;10.00;;;1.87;;
17235;SDS011;8734;59.272;17.780;2023-07-20T05:04:21;7.07;;;1.93;;
17235;SDS011;8734;59.272;17.780;2023-07-20T05:06:49;10.83;;;2.27;;
17235;SDS011;8734;59.272;17.780;2023-07-20T05:09:18;11.63;;;2.17;;
17235;SDS011;8734;59.272;17.780;2023-07-20T05:11:46;12.00;;;2.50;;
17235;SDS011;8734;59.272;17.780;2023-07-20T05:14:16;6.53;;;2.07;;
17235;SDS011;8734;59.272;17.780;2023-07-20T05:16:44;8.03;;;2.33;;
17235;SDS011;8734;59.272;17.780;2023-07-20T05:19:14;10.13;;;2.03;;
17235;SDS011;8734;59.272;17.780;2023-07-20T05:21:42;12.30;;;2.10;;
17235;SDS011;8734;59.272;17.780;2023-07-20T05:24:10;9.23;;;2.47;;
17235;SDS011;8734;59.272;17.780;2023-07-20T05:26:39;8.03;;;2.13;;
17235;SDS011;8734;59.272;17.780;2023-07-20T05:29:07;12.03;;;2.33;;
17235;SDS011;8734;59.272;17.780;2023-07-20T05:31:35;9.40;;;2.37;;
17235;SDS011;8734;59.272;17.780;2023-07-20T05:34:03;11.90;;;2.40;;
17235;SDS011;8734;59.272;17.780;2023-07-20T05:36:33;10.00;;;1.93;;
17235;SDS011;8734;59.272;17.780;2023-07-20T05:39:01;10.50;;;2.10;;
17235;SDS011;8734;59.272;17.780;2023-07-20T05:41:30;6.93;;;2.10;;
17235;SDS011;8734;59.272;17.780;2023-07-20T05:43:58;8.67;;;1.80;;
17235;SDS011;8734;59.272;17.780;2023-07-20T05:46:26;8.07;;;1.77;;
17235;SDS011;8734;59.272;17.780;2023-07-20T05:49:08;8.27;;;2.13;;
17235;SDS011;8734;59.272;17.780;2023-07-20T05:51:37;14.23;;;2.40;;
17235;SDS011;8734;59.272;17.780;2023-07-20T05:54:06;8.90;;;1.73;;
17235;SDS011;8734;59.272;17.780;2023-07-20T05:56:34;6.60;;;1.70;;
17235;SDS011;8734;59.272;17.780;2023-07-20T05:59:02;6.27;;;2.13;;
17235;SDS011;8734;59.272;17.780;2023-07-20T06:01:30;16.73;;;2.47;;
17235;SDS011;8734;59.272;17.780;2023-07-20T06:03:59;16.47;;;2.80;;
17235;SDS011;8734;59.272;17.780;2023-07-20T06:06:27;9.07;;;2.43;;
17235;SDS011;8734;59.272;17.780;2023-07-20T06:08:57;7.70;;;2.00;;
17235;SDS011;8734;59.272;17.780;2023-07-20T06:11:29;9.20;;;2.60;;
17235;SDS011;8734;59.272;17.780;2023-07-20T06:13:58;9.20;;;1.90;;
17235;SDS011;8734;59.272;17.780;2023-07-20T06:16:26;9.80;;;2.30;;
17235;SDS011;8734;59.272;17.780;2023-07-20T06:18:55;9.57;;;2.10;;
17235;SDS011;8734;59.272;17.780;2023-07-20T06:21:23;5.13;;;1.80;;
17235;SDS011;8734;59.272;17.780;2023-07-20T06:23:51;7.97;;;2.43;;
17235;SDS011;8734;59.272;17.780;2023-07-20T06:26:21;5.73;;;2.00;;
17235;SDS011;8734;59.272;17.780;2023-07-20T06:28:50;8.50;;;2.30;;
17235;SDS011;8734;59.272;17.780;2023-07-20T06:31:18;14.87;;;2.40;;
17235;SDS011;8734;59.272;17.780;2023-07-20T06:33:46;6.43;;;1.63;;
17235;SDS011;8734;59.272;17.780;2023-07-20T06:36:15;8.87;;;2.00;;
17235;SDS011;8734;59.272;17.780;2023-07-20T06:38:45;11.00;;;2.00;;
17235;SDS011;8734;59.272;17.780;2023-07-20T06:41:16;8.27;;;2.00;;
17235;SDS011;8734;59.272;17.780;2023-07-20T06:43:49;8.27;;;2.00;;
17235;SDS011;8734;59.272;17.780;2023-07-20T06:46:19;10.43;;;2.00;;
17235;SDS011;8734;59.272;17.780;2023-07-20T06:48:47;7.87;;;2.00;;
17235;SDS011;8734;59.272;17.780;2023-07-20T06:51:19;11.50;;;2.20;;
17235;SDS011;8734;59.272;17.780;2023-07-20T06:53:47;7.63;;;1.90;;
17235;SDS011;8734;59.272;17.780;2023-07-20T06:56:16;7.10;;;1.73;;
17235;SDS011;8734;59.272;17.780;2023-07-20T06:58:47;7.63;;;2.10;;
17235;SDS011;8734;59.272;17.780;2023-07-20T07:01:17;9.00;;;1.87;;
17235;SDS011;8734;59.272;17.780;2023-07-20T07:03:48;6.93;;;2.10;;
17235;SDS011;8734;59.272;17.780;2023-07-20T07:06:21;7.07;;;1.87;;
17235;SDS011;8734;59.272;17.780;2023-07-20T07:08:51;9.87;;;2.00;;
17235;SDS011;8734;59.272;17.780;2023-07-20T07:11:20;7.53;;;2.30;;
17235;SDS011;8734;59.272;17.780;2023-07-20T07:13:50;6.57;;;1.97;;
17235;SDS011;8734;59.272;17.780;2023-07-20T07:16:20;9.53;;;1.80;;
17235;SDS011;8734;59.272;17.780;2023-07-20T07:18:50;5.63;;;1.90;;
17235;SDS011;8734;59.272;17.780;2023-07-20T07:21:19;8.57;;;1.70;;
17235;SDS011;8734;59.272;17.780;2023-07-20T07:23:48;9.33;;;1.90;;
17235;SDS011;8734;59.272;17.780;2023-07-20T07:26:16;12.50;;;1.97;;
17235;SDS011;8734;59.272;17.780;2023-07-20T07:28:44;12.30;;;1.67;;
17235;SDS011;8734;59.272;17.780;2023-07-20T07:31:12;5.10;;;1.43;;
17235;SDS011;8734;59.272;17.780;2023-07-20T07:33:42;7.17;;;1.77;;
17235;SDS011;8734;59.272;17.780;2023-07-20T07:36:11;5.27;;;1.50;;
17235;SDS011;8734;59.272;17.780;2023-07-20T07:38:39;12.13;;;1.50;;
17235;SDS011;8734;59.272;17.780;2023-07-20T07:41:10;11.30;;;1.73;;
17235;SDS011;8734;59.272;17.780;2023-07-20T07:43:39;5.20;;;1.33;;
17235;SDS011;8734;59.272;17.780;2023-07-20T07:46:07;5.43;;;1.90;;
17235;SDS011;8734;59.272;17.780;2023-07-20T07:48:35;4.20;;;1.50;;
17235;SDS011;8734;59.272;17.780;2023-07-20T07:51:05;6.13;;;1.67;;
17235;SDS011;8734;59.272;17.780;2023-07-20T07:53:33;6.30;;;1.50;;
17235;SDS011;8734;59.272;17.780;2023-07-20T07:56:06;8.47;;;1.33;;
17235;SDS011;8734;59.272;17.780;2023-07-20T07:58:34;7.17;;;1.40;;
17235;SDS011;8734;59.272;17.780;2023-07-20T08:01:03;3.80;;;1.40;;
17235;SDS011;8734;59.272;17.780;2023-07-20T08:03:31;4.83;;;1.37;;
17235;SDS011;8734;59.272;17.780;2023-07-20T08:06:04;3.60;;;1.53;;
17235;SDS011;8734;59.272;17.780;2023-07-20T08:08:33;4.73;;;1.30;;
17235;SDS011;8734;59.272;17.780;2023-07-20T08:11:02;4.90;;;1.53;;
17235;SDS011;8734;59.272;17.780;2023-07-20T08:13:33;3.70;;;1.50;;
17235;SDS011;8734;59.272;17.780;2023-07-20T08:16:01;7.43;;;1.53;;
17235;SDS011;8734;59.272;17.780;2023-07-20T08:18:30;3.27;;;1.20;;
17235;SDS011;8734;59.272;17.780;2023-07-20T08:20:59;4.00;;;1.50;;
17235;SDS011;8734;59.272;17.780;2023-07-20T08:23:28;3.87;;;1.50;;
17235;SDS011;8734;59.272;17.780;2023-07-20T08:25:57;6.33;;;1.30;;
17235;SDS011;8734;59.272;17.780;2023-07-20T08:28:25;3.63;;;1.23;;
17235;SDS011;8734;59.272;17.780;2023-07-20T08:30:55;5.13;;;1.00;;
17235;SDS011;8734;59.272;17.780;2023-07-20T08:33:24;5.23;;;1.63;;
17235;SDS011;8734;59.272;17.780;2023-07-20T08:35:55;3.47;;;1.10;;
17235;SDS011;8734;59.272;17.780;2023-07-20T08:38:24;8.73;;;1.30;;
17235;SDS011;8734;59.272;17.780;2023-07-20T08:40:53;3.07;;;1.10;;
17235;SDS011;8734;59.272;17.780;2023-07-20T08:43:22;3.87;;;1.27;;
17235;SDS011;8734;59.272;17.780;2023-07-20T08:45:51;4.13;;;1.10;;
17235;SDS011;8734;59.272;17.780;2023-07-20T08:48:22;9.30;;;2.10;;
17235;SDS011;8734;59.272;17.780;2023-07-20T08:50:52;6.67;;;1.23;;
17235;SDS011;8734;59.272;17.780;2023-07-20T08:53:21;3.30;;;1.20;;
17235;SDS011;8734;59.272;17.780;2023-07-20T08:55:50;4.40;;;1.30;;
17235;SDS011;8734;59.272;17.780;2023-07-20T08:58:20;5.80;;;1.27;;
17235;SDS011;8734;59.272;17.780;2023-07-20T09:00:50;3.50;;;1.47;;
17235;SDS011;8734;59.272;17.780;2023-07-20T09:03:19;3.80;;;1.47;;
17235;SDS011;8734;59.272;17.780;2023-07-20T09:05:47;8.37;;;1.73;;
17235;SDS011;8734;59.272;17.780;2023-07-20T09:08:16;4.23;;;1.30;;
17235;SDS011;8734;59.272;17.780;2023-07-20T09:10:44;5.70;;;1.50;;
17235;SDS011;8734;59.272;17.780;2023-07-20T09:13:14;3.23;;;1.07;;
17235;SDS011;8734;59.272;17.780;2023-07-20T09:15:47;3.77;;;1.20;;
17235;SDS011;8734;59.272;17.780;2023-07-20T09:18:24;6.57;;;1.23;;
17235;SDS011;8734;59.272;17.780;2023-07-20T09:20:52;3.97;;;1.30;;
17235;SDS011;8734;59.272;17.780;2023-07-20T09:23:21;4.27;;;1.20;;
17235;SDS011;8734;59.272;17.780;2023-07-20T09:25:58;5.47;;;1.70;;
17235;SDS011;8734;59.272;17.780;2023-07-20T09:28:27;3.67;;;1.03;;
17235;SDS011;8734;59.272;17.780;2023-07-20T09:30:57;3.33;;;1.10;;
17235;SDS011;8734;59.272;17.780;2023-07-20T09:33:25;4.03;;;1.10;;
17235;SDS011;8734;59.272;17.780;2023-07-20T09:35:54;5.13;;;1.17;;
17235;SDS011;8734;59.272;17.780;2023-07-20T09:38:50;3.73;;;1.10;;
17235;SDS011;8734;59.272;17.780;2023-07-20T09:41:21;9.07;;;1.30;;
17235;SDS011;8734;59.272;17.780;2023-07-20T09:43:52;7.50;;;1.13;;
17235;SDS011;8734;59.272;17.780;2023-07-20T09:46:23;7.50;;;1.80;;
17235;SDS011;8734;59.272;17.780;2023-07-20T09:48:54;5.47;;;1.33;;
17235;SDS011;8734;59.272;17.780;2023-07-20T09:51:26;3.77;;;1.33;;
17235;SDS011;8734;59.272;17.780;2023-07-20T09:53:55;3.97;;;1.30;;
17235;SDS011;8734;59.272;17.780;2023-07-20T09:56:24;6.80;;;1.33;;
17235;SDS011;8734;59.272;17.780;2023-07-20T09:58:54;2.37;;;1.17;;
17235;SDS011;8734;59.272;17.780;2023-07-20T10:01:24;2.53;;;1.40;;
17235;SDS011;8734;59.272;17.780;2023-07-20T10:03:58;4.93;;;1.20;;
17235;SDS011;8734;59.272;17.780;2023-07-20T10:06:28;3.20;;;0.93;;
17235;SDS011;8734;59.272;17.780;2023-07-20T10:09:00;3.50;;;1.43;;
17235;SDS011;8734;59.272;17.780;2023-07-20T10:11:30;1.97;;;1.30;;
17235;SDS011;8734;59.272;17.780;2023-07-20T10:14:03;5.60;;;1.40;;
17235;SDS011;8734;59.272;17.780;2023-07-20T10:16:35;2.77;;;1.10;;
17235;SDS011;8734;59.272;17.780;2023-07-20T10:19:05;3.00;;;1.20;;
17235;SDS011;8734;59.272;17.780;2023-07-20T10:21:42;1.67;;;1.00;;
17235;SDS011;8734;59.272;17.780;2023-07-20T10:24:21;3.60;;;1.10;;
17235;SDS011;8734;59.272;17.780;2023-07-20T10:26:51;4.90;;;1.37;;
17235;SDS011;8734;59.272;17.780;2023-07-20T10:29:21;8.53;;;1.30;;
17235;SDS011;8734;59.272;17.780;2023-07-20T10:31:51;4.77;;;1.40;;
17235;SDS011;8734;59.272;17.780;2023-07-20T10:34:21;10.10;;;1.57;;
17235;SDS011;8734;59.272;17.780;2023-07-20T10:36:50;4.30;;;1.17;;
17235;SDS011;8734;59.272;17.780;2023-07-20T10:39:24;4.90;;;1.30;;
17235;SDS011;8734;59.272;17.780;2023-07-20T10:42:01;1.63;;;0.70;;
17235;SDS011;8734;59.272;17.780;2023-07-20T10:44:30;0.90;;;0.73;;
17235;SDS011;8734;59.272;17.780;2023-07-20T10:47:00;2.77;;;1.00;;
17235;SDS011;8734;59.272;17.780;2023-07-20T10:49:30;3.03;;;0.90;;
17235;SDS011;8734;59.272;17.780;2023-07-20T10:52:03;2.80;;;1.40;;
17235;SDS011;8734;59.272;17.780;2023-07-20T10:57:23;3.23;;;0.83;;
17235;SDS011;8734;59.272;17.780;2023-07-20T10:59:53;2.50;;;1.07;;
17235;SDS011;8734;59.272;17.780;2023-07-20T11:02:45;2.50;;;1.00;;
17235;SDS011;8734;59.272;17.780;2023-07-20T11:05:36;1.13;;;0.70;;
17235;SDS011;8734;59.272;17.780;2023-07-20T11:08:09;4.50;;;0.90;;
17235;SDS011;8734;59.272;17.780;2023-07-20T11:10:39;1.53;;;0.83;;
17235;SDS011;8734;59.272;17.780;2023-07-20T11:13:17;3.63;;;1.10;;
17235;SDS011;8734;59.272;17.780;2023-07-20T11:15:48;1.63;;;0.83;;
17235;SDS011;8734;59.272;17.780;2023-07-20T11:18:31;1.83;;;0.83;;
17235;SDS011;8734;59.272;17.780;2023-07-20T11:21:02;0.90;;;0.70;;
17235;SDS011;8734;59.272;17.780;2023-07-20T11:23:32;1.80;;;0.87;;
17235;SDS011;8734;59.272;17.780;2023-07-20T11:26:01;1.40;;;0.80;;
17235;SDS011;8734;59.272;17.780;2023-07-20T11:28:30;2.33;;;1.00;;
17235;SDS011;8734;59.272;17.780;2023-07-20T11:30:58;2.13;;;0.90;;
17235;SDS011;8734;59.272;17.780;2023-07-20T11:33:27;3.03;;;1.00;;
17235;SDS011;8734;59.272;17.780;2023-07-20T11:35:56;3.90;;;1.00;;
17235;SDS011;8734;59.272;17.780;2023-07-20T11:38:25;2.23;;;0.80;;
17235;SDS011;8734;59.272;17.780;2023-07-20T11:40:53;1.77;;;0.90;;
17235;SDS011;8734;59.272;17.780;2023-07-20T11:43:22;0.93;;;0.80;;
17235;SDS011;8734;59.272;17.780;2023-07-20T11:45:52;5.03;;;0.97;;
17235;SDS011;8734;59.272;17.780;2023-07-20T11:48:20;3.10;;;1.00;;
17235;SDS011;8734;59.272;17.780;2023-07-20T11:50:49;2.03;;;1.10;;
17235;SDS011;8734;59.272;17.780;2023-07-20T11:53:19;1.33;;;0.77;;
17235;SDS011;8734;59.272;17.780;2023-07-20T11:55:47;1.43;;;0.70;;
17235;SDS011;8734;59.272;17.780;2023-07-20T11:58:16;1.40;;;0.90;;
17235;SDS011;8734;59.272;17.780;2023-07-20T12:00:45;3.13;;;0.95;;
17235;SDS011;8734;59.272;17.780;2023-07-20T12:03:13;2.33;;;0.90;;
17235;SDS011;8734;59.272;17.780;2023-07-20T12:05:42;2.25;;;0.98;;
17235;SDS011;8734;59.272;17.780;2023-07-20T12:08:27;3.60;;;1.10;;
17235;SDS011;8734;59.272;17.780;2023-07-20T12:10:56;1.50;;;0.87;;
17235;SDS011;8734;59.272;17.780;2023-07-20T12:13:26;1.57;;;0.93;;
17235;SDS011;8734;59.272;17.780;2023-07-20T12:16:07;2.50;;;0.80;;
17235;SDS011;8734;59.272;17.780;2023-07-20T12:18:37;1.50;;;0.90;;
17235;SDS011;8734;59.272;17.780;2023-07-20T12:21:06;1.20;;;0.90;;
17235;SDS011;8734;59.272;17.780;2023-07-20T12:23:36;1.13;;;0.70;;
17235;SDS011;8734;59.272;17.780;2023-07-20T12:26:06;1.43;;;0.73;;
17235;SDS011;8734;59.272;17.780;2023-07-20T12:28:38;2.00;;;0.80;;
17235;SDS011;8734;59.272;17.780;2023-07-20T12:31:08;2.47;;;0.93;;
17235;SDS011;8734;59.272;17.780;2023-07-20T12:33:37;2.87;;;0.80;;
17235;SDS011;8734;59.272;17.780;2023-07-20T12:36:05;2.40;;;0.70;;
17235;SDS011;8734;59.272;17.780;2023-07-20T12:38:34;4.83;;;0.83;;
17235;SDS011;8734;59.272;17.780;2023-07-20T12:41:04;2.03;;;0.80;;
17235;SDS011;8734;59.272;17.780;2023-07-20T12:43:33;2.23;;;0.80;;
17235;SDS011;8734;59.272;17.780;2023-07-20T12:46:01;1.83;;;0.93;;
17235;SDS011;8734;59.272;17.780;2023-07-20T12:48:30;1.80;;;0.80;;
17235;SDS011;8734;59.272;17.780;2023-07-20T12:50:58;3.10;;;1.20;;
17235;SDS011;8734;59.272;17.780;2023-07-20T12:53:26;1.07;;;0.70;;
17235;SDS011;8734;59.272;17.780;2023-07-20T12:55:54;3.43;;;1.37;;
17235;SDS011;8734;59.272;17.780;2023-07-20T12:58:24;2.30;;;1.30;;
17235;SDS011;8734;59.272;17.780;2023-07-20T13:00:53;4.17;;;1.10;;
17235;SDS011;8734;59.272;17.780;2023-07-20T13:03:21;1.57;;;0.90;;
17235;SDS011;8734;59.272;17.780;2023-07-20T13:05:53;4.97;;;0.97;;
17235;SDS011;8734;59.272;17.780;2023-07-20T13:08:24;3.40;;;1.10;;
17235;SDS011;8734;59.272;17.780;2023-07-20T13:10:53;3.93;;;1.03;;
17235;SDS011;8734;59.272;17.780;2023-07-20T13:13:21;1.43;;;1.00;;
17235;SDS011;8734;59.272;17.780;2023-07-20T13:15:51;2.90;;;0.83;;
17235;SDS011;8734;59.272;17.780;2023-07-20T13:18:20;3.33;;;0.80;;
17235;SDS011;8734;59.272;17.780;2023-07-20T13:20:49;5.97;;;1.10;;
17235;SDS011;8734;59.272;17.780;2023-07-20T13:23:17;2.33;;;0.80;;
17235;SDS011;8734;59.272;17.780;2023-07-20T13:25:46;3.23;;;1.13;;
17235;SDS011;8734;59.272;17.780;2023-07-20T13:28:14;1.60;;;0.70;;
17235;SDS011;8734;59.272;17.780;2023-07-20T13:30:42;3.57;;;1.10;;
17235;SDS011;8734;59.272;17.780;2023-07-20T13:33:14;1.20;;;0.87;;
17235;SDS011;8734;59.272;17.780;2023-07-20T13:35:44;1.30;;;0.70;;
17235;SDS011;8734;59.272;17.780;2023-07-20T13:38:15;3.40;;;0.80;;
17235;SDS011;8734;59.272;17.780;2023-07-20T13:40:43;4.57;;;0.73;;
17235;SDS011;8734;59.272;17.780;2023-07-20T13:43:12;2.17;;;0.80;;
17235;SDS011;8734;59.272;17.780;2023-07-20T13:45:40;1.47;;;0.90;;
17235;SDS011;8734;59.272;17.780;2023-07-20T13:48:08;1.43;;;0.80;;
17235;SDS011;8734;59.272;17.780;2023-07-20T13:50:38;3.50;;;0.70;;
17235;SDS011;8734;59.272;17.780;2023-07-20T13:53:24;0.97;;;0.80;;
17235;SDS011;8734;59.272;17.780;2023-07-20T13:55:57;1.20;;;0.70;;
17235;SDS011;8734;59.272;17.780;2023-07-20T13:58:28;2.20;;;0.80;;
17235;SDS011;8734;59.272;17.780;2023-07-20T14:00:57;0.90;;;0.63;;
17235;SDS011;8734;59.272;17.780;2023-07-20T14:03:26;1.47;;;0.87;;
17235;SDS011;8734;59.272;17.780;2023-07-20T14:05:56;3.47;;;1.00;;
17235;SDS011;8734;59.272;17.780;2023-07-20T14:08:27;3.73;;;0.80;;
17235;SDS011;8734;59.272;17.780;2023-07-20T14:10:56;3.27;;;0.70;;
17235;SDS011;8734;59.272;17.780;2023-07-20T14:13:27;1.73;;;0.60;;
17235;SDS011;8734;59.272;17.780;2023-07-20T14:16:11;1.83;;;0.70;;
17235;SDS011;8734;59.272;17.780;2023-07-20T14:18:39;1.30;;;0.73;;
17235;SDS011;8734;59.272;17.780;2023-07-20T14:21:09;1.87;;;0.90;;
17235;SDS011;8734;59.272;17.780;2023-07-20T14:23:37;2.17;;;0.80;;
17235;SDS011;8734;59.272;17.780;2023-07-20T14:26:06;0.83;;;0.70;;
17235;SDS011;8734;59.272;17.780;2023-07-20T14:28:36;1.70;;;0.87;;
17235;SDS011;8734;59.272;17.780;2023-07-20T14:31:05;1.23;;;0.87;;
17235;SDS011;8734;59.272;17.780;2023-07-20T14:33:33;2.17;;;0.77;;
17235;SDS011;8734;59.272;17.780;2023-07-20T14:36:02;3.37;;;1.10;;
17235;SDS011;8734;59.272;17.780;2023-07-20T14:38:33;6.07;;;1.60;;
17235;SDS011;8734;59.272;17.780;2023-07-20T14:41:01;4.60;;;1.40;;
17235;SDS011;8734;59.272;17.780;2023-07-20T14:43:33;4.70;;;1.47;;
17235;SDS011;8734;59.272;17.780;2023-07-20T14:46:01;5.40;;;1.13;;
17235;SDS011;8734;59.272;17.780;2023-07-20T14:48:30;4.57;;;1.30;;
17235;SDS011;8734;59.272;17.780;2023-07-20T14:50:58;4.30;;;1.20;;
17235;SDS011;8734;59.272;17.780;2023-07-20T14:53:30;2.47;;;1.00;;
17235;SDS011;8734;59.272;17.780;2023-07-20T14:56:02;1.10;;;1.00;;
17235;SDS011;8734;59.272;17.780;2023-07-20T14:58:31;2.50;;;1.23;;
17235;SDS011;8734;59.272;17.780;2023-07-20T15:01:01;7.33;;;1.30;;
17235;SDS011;8734;59.272;17.780;2023-07-20T15:03:30;5.83;;;1.40;;
17235;SDS011;8734;59.272;17.780;2023-07-20T15:05:59;6.90;;;1.17;;
17235;SDS011;8734;59.272;17.780;2023-07-20T15:08:28;2.20;;;1.13;;
17235;SDS011;8734;59.272;17.780;2023-07-20T15:10:59;4.37;;;1.30;;